East Texas Regional Airport
KGGG : rendu visible

Aérodrome :











RETROUVEZ-NOUS SUR...

 
LOGIN :

S'inscrire | Disclaimer

   EN    FR    IT 

 









Légende :    VFR   VFR Marginal   IFR   IFR Intensif   IFR Très Intensif
Visi : 
Plafond : 
>= 8 km
>= 3000ft
5 à 8 km
1000 à 3000 ft
1500m à 5 km
500 à 1000 ft
800 à 1500m
200 à 500 ft
< 800m
< 200 ft
Symboles :   Orages  Brouillard  Fortes neiges  Fortes précipitations  Vent > 20 kt






- Altitude de l'aérodrome : 365 ft
- Code IATA : GGG


KGGG - East Texas Regional

DERNIER METAR :
  • 290253Z AUTO 00000KT 10SM CLR 12/10 A2996 RMK AO2 SLP141 T01170100 53033

METARs EXPIRÉS :
  • 290153Z 00000KT 10SM CLR 12/10 A2991 RMK AO2 SLP126 T01220100
  • 290053Z 29003KT 10SM CLR 13/11 A2986 RMK AO2 PRESFR SLP109 T01280106

TAF KGGG
Valide du 29 à 00h jusqu'au 30 à 00h UTC


282337Z 2900/2924 20005KT P6SM SCT120
FM290100 26007KT P6SM SCT250
FM291000 02006KT P6SM FEW250
FM291500 01003KT P6SM SKC
FM291800 12005KT P6SM SCT250



MET'MAP, la Météo Aéronautique d'un coup d'oeil ! - Copyright ORBIFLY Décembre 2007 - Disclaimer

ORBIFLY MET'MAP TEAM :

Programmation & Développement : Alexandra Zaïnal
Sur une idée originale de : Baudouin d'Aumeries
Assistance à la programmation : Marc-Olivier Méhu
Soutien technique & logistique : Manuel Goepfert

Contact : metmap@orbifly.com




SOURCES & CREDITS :

   NOAA       Earth
Advisory